createdAt,value
2022-07-29T00:11:23.424Z,79.2
2022-07-29T00:31:23.389Z,82.0
2022-07-29T00:51:23.360Z,80.9
2022-07-29T01:11:23.328Z,82.4
2022-07-29T01:31:23.289Z,81.7
2022-07-29T01:51:23.272Z,83.7
2022-07-29T02:11:23.237Z,87.8
2022-07-29T02:31:23.198Z,86.3
2022-07-29T02:51:23.168Z,87.9
2022-07-29T03:11:23.143Z,85.0
2022-07-29T03:31:23.113Z,86.6
2022-07-29T03:51:23.082Z,85.3
2022-07-29T04:11:23.040Z,87.3
2022-07-29T04:31:23.001Z,88.9
2022-07-29T04:51:22.984Z,89.5
2022-07-29T05:11:22.965Z,87.7
2022-07-29T05:31:22.927Z,85.3
2022-07-29T05:51:22.885Z,85.1
2022-07-29T06:11:22.854Z,87.1
2022-07-29T06:31:22.839Z,81.8
2022-07-29T06:51:22.806Z,79.8
2022-07-29T07:11:22.776Z,80.1
2022-07-29T07:31:22.744Z,73.3
2022-07-29T07:51:22.707Z,72.5
2022-07-29T08:11:22.661Z,70.2
2022-07-29T08:31:22.642Z,71.3
2022-07-29T08:51:22.611Z,68.7
2022-07-29T09:11:22.577Z,64.3
2022-07-29T09:31:22.553Z,65.8
2022-07-29T09:51:22.510Z,63.7
2022-07-29T10:11:22.479Z,61.8
2022-07-29T10:31:22.459Z,66.2
2022-07-29T10:51:22.430Z,65.3
2022-07-29T11:11:22.387Z,59.9
2022-07-29T11:31:22.393Z,59.9
2022-07-29T11:51:22.327Z,54.0
2022-07-29T12:11:22.327Z,57.0
2022-07-29T12:31:22.285Z,52.8
2022-07-29T12:51:22.241Z,54.3
2022-07-29T13:11:22.200Z,57.6
2022-07-29T13:31:22.172Z,58.0
2022-07-29T13:51:22.142Z,52.3
2022-07-29T14:11:22.106Z,59.4
2022-07-29T14:31:22.081Z,61.5
2022-07-29T14:51:22.044Z,60.0
2022-07-29T15:11:22.016Z,61.2
2022-07-29T15:31:21.973Z,62.9
2022-07-29T15:51:21.955Z,70.3
2022-07-29T16:11:21.914Z,67.9
2022-07-29T16:31:21.892Z,69.0
2022-07-29T16:51:21.858Z,69.4
2022-07-29T17:11:21.817Z,68.7
2022-07-29T17:31:21.778Z,69.5
2022-07-29T17:51:21.763Z,81.5
2022-07-29T18:11:21.740Z,83.3
2022-07-29T18:31:21.693Z,85.6
2022-07-29T18:51:21.655Z,86.5
2022-07-29T19:11:21.621Z,84.9
2022-07-29T19:31:21.612Z,87.4
2022-07-29T19:51:21.590Z,87.4
2022-07-29T20:11:21.539Z,89.1
2022-07-29T20:31:21.497Z,90.1
2022-07-29T20:51:21.465Z,91.5
2022-07-29T21:11:21.436Z,91.9
2022-07-29T21:31:21.425Z,92.8
2022-07-29T21:51:21.390Z,92.7
2022-07-29T22:11:21.349Z,93.5
2022-07-29T22:31:21.319Z,92.8
2022-07-29T22:51:21.297Z,94.0
2022-07-29T23:11:21.271Z,93.2
2022-07-29T23:31:21.233Z,93.4
2022-07-29T23:51:21.202Z,94.2
